sensor_id;sensor_type;location;lat;lon;timestamp;pressure;altitude;pressure_sealevel;temperature;humidity
35989;BME280;22064;42.672;23.282;2022-08-06T00:02:29;94511.88;;;19.88;100.00
35989;BME280;22064;42.672;23.282;2022-08-06T00:04:56;94515.66;;;19.73;100.00
35989;BME280;22064;42.672;23.282;2022-08-06T00:07:22;94520.94;;;19.73;100.00
35989;BME280;22064;42.672;23.282;2022-08-06T00:09:48;94511.16;;;19.73;100.00
35989;BME280;22064;42.672;23.282;2022-08-06T00:12:14;94514.91;;;19.81;100.00
35989;BME280;22064;42.672;23.282;2022-08-06T00:14:40;94510.72;;;19.80;100.00
35989;BME280;22064;42.672;23.282;2022-08-06T00:17:06;94523.97;;;19.89;100.00
35989;BME280;22064;42.672;23.282;2022-08-06T00:19:31;94526.19;;;19.95;100.00
35989;BME280;22064;42.672;23.282;2022-08-06T00:21:57;94526.97;;;19.96;100.00
35989;BME280;22064;42.672;23.282;2022-08-06T00:24:22;94530.00;;;19.80;100.00
35989;BME280;22064;42.672;23.282;2022-08-06T00:26:48;94538.63;;;19.95;100.00
35989;BME280;22064;42.672;23.282;2022-08-06T00:29:14;94530.69;;;19.95;100.00
35989;BME280;22064;42.672;23.282;2022-08-06T00:31:40;94533.81;;;19.97;100.00
35989;BME280;22064;42.672;23.282;2022-08-06T00:34:06;94523.50;;;19.87;100.00
35989;BME280;22064;42.672;23.282;2022-08-06T00:36:33;94534.44;;;19.94;100.00
35989;BME280;22064;42.672;23.282;2022-08-06T00:39:00;94534.56;;;19.89;100.00
35989;BME280;22064;42.672;23.282;2022-08-06T00:41:27;94538.09;;;19.84;100.00
35989;BME280;22064;42.672;23.282;2022-08-06T00:43:53;94526.28;;;19.81;100.00
35989;BME280;22064;42.672;23.282;2022-08-06T00:46:22;94535.66;;;19.88;100.00
35989;BME280;22064;42.672;23.282;2022-08-06T00:48:48;94526.78;;;19.92;100.00
35989;BME280;22064;42.672;23.282;2022-08-06T00:51:14;94533.84;;;19.74;100.00
35989;BME280;22064;42.672;23.282;2022-08-06T00:53:40;94533.19;;;19.69;100.00
35989;BME280;22064;42.672;23.282;2022-08-06T00:56:06;94536.41;;;19.66;100.00
35989;BME280;22064;42.672;23.282;2022-08-06T00:58:31;94539.34;;;19.42;100.00
35989;BME280;22064;42.672;23.282;2022-08-06T01:00:57;94535.59;;;19.20;100.00
35989;BME280;22064;42.672;23.282;2022-08-06T01:03:23;94534.25;;;19.09;100.00
35989;BME280;22064;42.672;23.282;2022-08-06T01:05:49;94539.66;;;19.04;100.00
35989;BME280;22064;42.672;23.282;2022-08-06T01:08:15;94536.75;;;18.91;100.00
35989;BME280;22064;42.672;23.282;2022-08-06T01:10:40;94540.09;;;18.83;100.00
35989;BME280;22064;42.672;23.282;2022-08-06T01:13:06;94537.13;;;18.71;100.00
35989;BME280;22064;42.672;23.282;2022-08-06T01:15:37;94534.00;;;18.69;100.00
35989;BME280;22064;42.672;23.282;2022-08-06T01:18:08;94531.88;;;18.57;100.00
35989;BME280;22064;42.672;23.282;2022-08-06T01:29:28;94526.13;;;18.55;100.00
35989;BME280;22064;42.672;23.282;2022-08-06T01:35:05;94519.09;;;18.64;100.00
35989;BME280;22064;42.672;23.282;2022-08-06T01:37:43;94521.53;;;18.75;100.00
35989;BME280;22064;42.672;23.282;2022-08-06T01:40:22;94527.50;;;18.66;100.00
35989;BME280;22064;42.672;23.282;2022-08-06T01:42:51;94527.88;;;18.74;100.00
35989;BME280;22064;42.672;23.282;2022-08-06T01:45:19;94527.38;;;18.85;100.00
35989;BME280;22064;42.672;23.282;2022-08-06T01:47:49;94528.38;;;18.76;100.00
35989;BME280;22064;42.672;23.282;2022-08-06T01:50:19;94523.47;;;18.69;100.00
35989;BME280;22064;42.672;23.282;2022-08-06T01:52:46;94527.56;;;18.61;100.00
35989;BME280;22064;42.672;23.282;2022-08-06T01:55:14;94530.91;;;18.39;100.00
35989;BME280;22064;42.672;23.282;2022-08-06T01:57:47;94517.16;;;18.29;100.00
35989;BME280;22064;42.672;23.282;2022-08-06T02:00:15;94528.34;;;18.07;100.00
35989;BME280;22064;42.672;23.282;2022-08-06T02:02:42;94523.16;;;17.88;100.00
35989;BME280;22064;42.672;23.282;2022-08-06T02:05:09;94519.09;;;17.76;100.00
35989;BME280;22064;42.672;23.282;2022-08-06T02:07:39;94487.31;;;17.73;100.00
35989;BME280;22064;42.672;23.282;2022-08-06T02:10:06;94505.50;;;17.88;100.00
35989;BME280;22064;42.672;23.282;2022-08-06T02:12:34;94489.63;;;17.74;100.00
35989;BME280;22064;42.672;23.282;2022-08-06T02:15:09;94505.41;;;17.80;100.00
35989;BME280;22064;42.672;23.282;2022-08-06T02:17:50;94497.50;;;17.80;100.00
35989;BME280;22064;42.672;23.282;2022-08-06T02:20:23;94503.06;;;17.92;100.00
35989;BME280;22064;42.672;23.282;2022-08-06T02:22:50;94503.66;;;17.89;100.00
35989;BME280;22064;42.672;23.282;2022-08-06T02:25:17;94494.56;;;17.81;100.00
35989;BME280;22064;42.672;23.282;2022-08-06T02:27:47;94493.72;;;17.67;100.00
35989;BME280;22064;42.672;23.282;2022-08-06T02:30:14;94497.16;;;17.67;100.00
35989;BME280;22064;42.672;23.282;2022-08-06T02:32:41;94495.16;;;17.59;100.00
35989;BME280;22064;42.672;23.282;2022-08-06T02:35:08;94489.50;;;17.52;100.00
35989;BME280;22064;42.672;23.282;2022-08-06T02:37:38;94494.25;;;17.50;100.00
35989;BME280;22064;42.672;23.282;2022-08-06T02:40:16;94498.69;;;17.54;100.00
35989;BME280;22064;42.672;23.282;2022-08-06T02:42:46;94499.38;;;17.60;100.00
35989;BME280;22064;42.672;23.282;2022-08-06T02:45:43;94502.22;;;17.64;100.00
35989;BME280;22064;42.672;23.282;2022-08-06T02:48:21;94503.56;;;17.61;100.00
35989;BME280;22064;42.672;23.282;2022-08-06T02:50:51;94494.69;;;17.57;100.00
35989;BME280;22064;42.672;23.282;2022-08-06T02:53:23;94497.41;;;17.52;100.00
35989;BME280;22064;42.672;23.282;2022-08-06T02:55:56;94501.00;;;17.56;100.00
35989;BME280;22064;42.672;23.282;2022-08-06T03:01:07;94503.06;;;17.59;100.00
35989;BME280;22064;42.672;23.282;2022-08-06T03:03:34;94510.69;;;17.61;100.00
35989;BME280;22064;42.672;23.282;2022-08-06T03:06:03;94505.22;;;17.57;100.00
35989;BME280;22064;42.672;23.282;2022-08-06T03:08:31;94509.59;;;17.62;100.00
35989;BME280;22064;42.672;23.282;2022-08-06T03:10:58;94505.50;;;17.69;100.00
35989;BME280;22064;42.672;23.282;2022-08-06T03:13:25;94509.56;;;17.81;100.00
35989;BME280;22064;42.672;23.282;2022-08-06T03:15:53;94509.63;;;17.75;100.00
35989;BME280;22064;42.672;23.282;2022-08-06T03:18:20;94512.59;;;17.88;100.00
35989;BME280;22064;42.672;23.282;2022-08-06T03:20:47;94523.66;;;17.90;100.00
35989;BME280;22064;42.672;23.282;2022-08-06T03:23:14;94514.47;;;17.87;100.00
35989;BME280;22064;42.672;23.282;2022-08-06T03:25:42;94514.00;;;17.99;100.00
35989;BME280;22064;42.672;23.282;2022-08-06T03:28:11;94518.03;;;18.10;100.00
35989;BME280;22064;42.672;23.282;2022-08-06T03:30:38;94523.59;;;18.22;100.00
35989;BME280;22064;42.672;23.282;2022-08-06T03:33:12;94514.81;;;18.27;100.00
35989;BME280;22064;42.672;23.282;2022-08-06T03:35:39;94511.69;;;18.39;100.00
35989;BME280;22064;42.672;23.282;2022-08-06T03:38:07;94504.56;;;18.39;100.00
35989;BME280;22064;42.672;23.282;2022-08-06T03:40:33;94514.59;;;18.51;100.00
35989;BME280;22064;42.672;23.282;2022-08-06T03:43:00;94513.50;;;18.66;100.00
35989;BME280;22064;42.672;23.282;2022-08-06T03:45:27;94507.84;;;18.59;100.00
35989;BME280;22064;42.672;23.282;2022-08-06T03:47:56;94515.84;;;18.67;100.00
35989;BME280;22064;42.672;23.282;2022-08-06T03:50:31;94518.31;;;18.78;100.00
35989;BME280;22064;42.672;23.282;2022-08-06T03:53:26;94524.25;;;18.97;100.00
35989;BME280;22064;42.672;23.282;2022-08-06T03:55:57;94512.13;;;19.19;100.00
35989;BME280;22064;42.672;23.282;2022-08-06T03:58:25;94517.25;;;19.60;100.00
35989;BME280;22064;42.672;23.282;2022-08-06T04:00:58;94518.91;;;19.70;100.00
35989;BME280;22064;42.672;23.282;2022-08-06T04:03:24;94518.59;;;19.94;100.00
35989;BME280;22064;42.672;23.282;2022-08-06T04:05:51;94521.72;;;20.04;100.00
35989;BME280;22064;42.672;23.282;2022-08-06T04:08:19;94521.28;;;20.51;100.00
35989;BME280;22064;42.672;23.282;2022-08-06T04:10:48;94529.47;;;20.72;100.00
35989;BME280;22064;42.672;23.282;2022-08-06T04:13:17;94528.69;;;20.80;100.00
35989;BME280;22064;42.672;23.282;2022-08-06T04:15:44;94529.22;;;21.17;100.00
35989;BME280;22064;42.672;23.282;2022-08-06T04:18:14;94522.22;;;21.47;100.00
35989;BME280;22064;42.672;23.282;2022-08-06T04:20:44;94534.34;;;21.74;100.00
35989;BME280;22064;42.672;23.282;2022-08-06T04:23:10;94530.44;;;21.80;100.00
35989;BME280;22064;42.672;23.282;2022-08-06T04:25:41;94533.34;;;22.05;100.00
35989;BME280;22064;42.672;23.282;2022-08-06T04:28:08;94543.06;;;22.39;100.00
35989;BME280;22064;42.672;23.282;2022-08-06T04:30:35;94534.13;;;22.82;100.00
35989;BME280;22064;42.672;23.282;2022-08-06T04:33:03;94541.47;;;23.15;100.00
35989;BME280;22064;42.672;23.282;2022-08-06T04:35:29;94544.94;;;23.48;100.00
35989;BME280;22064;42.672;23.282;2022-08-06T04:37:56;94540.56;;;23.86;100.00
35989;BME280;22064;42.672;23.282;2022-08-06T04:40:23;94538.81;;;23.90;100.00
35989;BME280;22064;42.672;23.282;2022-08-06T04:42:50;94538.78;;;23.78;100.00
35989;BME280;22064;42.672;23.282;2022-08-06T04:45:16;94549.06;;;23.79;100.00
35989;BME280;22064;42.672;23.282;2022-08-06T04:47:43;94548.09;;;23.84;100.00
35989;BME280;22064;42.672;23.282;2022-08-06T04:50:09;94553.03;;;24.06;99.16
35989;BME280;22064;42.672;23.282;2022-08-06T04:52:36;94553.91;;;24.10;98.40
35989;BME280;22064;42.672;23.282;2022-08-06T04:55:02;94550.50;;;23.56;100.00
35989;BME280;22064;42.672;23.282;2022-08-06T04:57:28;94548.63;;;22.85;100.00
35989;BME280;22064;42.672;23.282;2022-08-06T04:59:53;94557.19;;;22.05;100.00
35989;BME280;22064;42.672;23.282;2022-08-06T05:02:19;94567.22;;;21.30;100.00
35989;BME280;22064;42.672;23.282;2022-08-06T05:04:45;94557.56;;;21.25;100.00
35989;BME280;22064;42.672;23.282;2022-08-06T05:07:19;94568.41;;;20.89;100.00
35989;BME280;22064;42.672;23.282;2022-08-06T05:09:46;94563.69;;;20.77;100.00
35989;BME280;22064;42.672;23.282;2022-08-06T05:12:27;94566.34;;;20.77;100.00
35989;BME280;22064;42.672;23.282;2022-08-06T05:15:02;94559.38;;;20.81;100.00
35989;BME280;22064;42.672;23.282;2022-08-06T05:17:33;94567.84;;;21.09;100.00
35989;BME280;22064;42.672;23.282;2022-08-06T05:20:03;94559.78;;;21.40;100.00
35989;BME280;22064;42.672;23.282;2022-08-06T05:22:31;94560.69;;;21.62;100.00
35989;BME280;22064;42.672;23.282;2022-08-06T05:24:58;94558.31;;;21.86;100.00
35989;BME280;22064;42.672;23.282;2022-08-06T05:27:24;94555.72;;;21.69;100.00
35989;BME280;22064;42.672;23.282;2022-08-06T05:29:50;94561.63;;;21.57;100.00
35989;BME280;22064;42.672;23.282;2022-08-06T05:32:16;94561.94;;;21.64;100.00
35989;BME280;22064;42.672;23.282;2022-08-06T05:34:45;94565.84;;;21.58;100.00
35989;BME280;22064;42.672;23.282;2022-08-06T05:37:11;94571.41;;;21.31;100.00
35989;BME280;22064;42.672;23.282;2022-08-06T05:39:37;94563.66;;;21.34;100.00
35989;BME280;22064;42.672;23.282;2022-08-06T05:42:02;94566.94;;;21.75;100.00
35989;BME280;22064;42.672;23.282;2022-08-06T05:44:28;94545.25;;;21.90;100.00
35989;BME280;22064;42.672;23.282;2022-08-06T05:46:57;94568.28;;;22.24;100.00
35989;BME280;22064;42.672;23.282;2022-08-06T05:49:41;94566.53;;;22.28;100.00
35989;BME280;22064;42.672;23.282;2022-08-06T05:54:49;94574.50;;;22.28;100.00
35989;BME280;22064;42.672;23.282;2022-08-06T05:57:25;94562.50;;;21.96;100.00
35989;BME280;22064;42.672;23.282;2022-08-06T05:59:59;94570.78;;;21.95;100.00
35989;BME280;22064;42.672;23.282;2022-08-06T06:02:27;94564.72;;;22.03;100.00
35989;BME280;22064;42.672;23.282;2022-08-06T06:04:54;94559.75;;;21.75;100.00
35989;BME280;22064;42.672;23.282;2022-08-06T06:07:20;94561.31;;;21.67;100.00
35989;BME280;22064;42.672;23.282;2022-08-06T06:09:47;94551.19;;;21.70;100.00
35989;BME280;22064;42.672;23.282;2022-08-06T06:12:13;94558.31;;;21.86;100.00
35989;BME280;22064;42.672;23.282;2022-08-06T06:14:42;94551.31;;;21.90;100.00
35989;BME280;22064;42.672;23.282;2022-08-06T06:17:33;94559.22;;;22.08;100.00
35989;BME280;22064;42.672;23.282;2022-08-06T06:20:39;94552.31;;;22.33;100.00
35989;BME280;22064;42.672;23.282;2022-08-06T06:23:31;94554.16;;;22.41;100.00
35989;BME280;22064;42.672;23.282;2022-08-06T06:29:15;94554.16;;;22.71;100.00
35989;BME280;22064;42.672;23.282;2022-08-06T06:31:51;94554.09;;;22.88;100.00
35989;BME280;22064;42.672;23.282;2022-08-06T06:34:41;94552.66;;;22.91;100.00
35989;BME280;22064;42.672;23.282;2022-08-06T06:37:31;94548.13;;;23.21;100.00
35989;BME280;22064;42.672;23.282;2022-08-06T06:40:29;94551.56;;;22.92;100.00
35989;BME280;22064;42.672;23.282;2022-08-06T06:45:32;94544.16;;;23.27;100.00
35989;BME280;22064;42.672;23.282;2022-08-06T06:48:08;94540.72;;;23.26;100.00
35989;BME280;22064;42.672;23.282;2022-08-06T06:50:46;94535.41;;;23.47;100.00
35989;BME280;22064;42.672;23.282;2022-08-06T06:53:14;94538.06;;;23.68;98.23
35989;BME280;22064;42.672;23.282;2022-08-06T06:55:44;94533.88;;;23.80;98.25
35989;BME280;22064;42.672;23.282;2022-08-06T07:00:59;94531.94;;;24.59;87.13
35989;BME280;22064;42.672;23.282;2022-08-06T07:03:25;94533.56;;;25.00;81.37
35989;BME280;22064;42.672;23.282;2022-08-06T07:05:54;94530.53;;;25.26;80.69
35989;BME280;22064;42.672;23.282;2022-08-06T07:08:21;94533.63;;;25.41;75.50
35989;BME280;22064;42.672;23.282;2022-08-06T07:10:49;94532.28;;;24.70;82.77
35989;BME280;22064;42.672;23.282;2022-08-06T07:13:17;94529.34;;;25.11;81.11
35989;BME280;22064;42.672;23.282;2022-08-06T07:15:45;94518.84;;;25.43;80.81
35989;BME280;22064;42.672;23.282;2022-08-06T07:18:14;94524.72;;;25.77;74.38
35989;BME280;22064;42.672;23.282;2022-08-06T07:20:40;94522.28;;;26.00;71.30
35989;BME280;22064;42.672;23.282;2022-08-06T07:23:09;94517.81;;;25.76;72.35
35989;BME280;22064;42.672;23.282;2022-08-06T07:25:43;94519.44;;;26.09;70.66
35989;BME280;22064;42.672;23.282;2022-08-06T07:28:11;94513.00;;;26.10;68.33
35989;BME280;22064;42.672;23.282;2022-08-06T07:30:40;94515.41;;;25.71;72.55
35989;BME280;22064;42.672;23.282;2022-08-06T07:33:07;94511.81;;;25.51;75.21
35989;BME280;22064;42.672;23.282;2022-08-06T07:35:36;94514.09;;;25.65;75.03
35989;BME280;22064;42.672;23.282;2022-08-06T07:38:06;94511.59;;;25.84;71.85
35989;BME280;22064;42.672;23.282;2022-08-06T07:40:44;94503.69;;;25.75;71.54
35989;BME280;22064;42.672;23.282;2022-08-06T07:43:16;94492.19;;;25.71;73.12
35989;BME280;22064;42.672;23.282;2022-08-06T07:45:42;94496.03;;;26.02;73.08
35989;BME280;22064;42.672;23.282;2022-08-06T07:48:11;94501.91;;;26.39;70.47
35989;BME280;22064;42.672;23.282;2022-08-06T07:50:40;94503.59;;;26.63;68.28
35989;BME280;22064;42.672;23.282;2022-08-06T07:53:07;94498.19;;;26.60;65.62
35989;BME280;22064;42.672;23.282;2022-08-06T07:55:35;94509.09;;;25.91;69.22
35989;BME280;22064;42.672;23.282;2022-08-06T07:58:03;94494.16;;;26.02;70.28
35989;BME280;22064;42.672;23.282;2022-08-06T08:00:29;94496.28;;;26.44;68.64
35989;BME280;22064;42.672;23.282;2022-08-06T08:02:55;94495.78;;;26.70;66.27
35989;BME280;22064;42.672;23.282;2022-08-06T08:05:41;94501.66;;;26.95;62.29
35989;BME280;22064;42.672;23.282;2022-08-06T08:08:26;94497.59;;;27.02;61.17
35989;BME280;22064;42.672;23.282;2022-08-06T08:10:53;94498.66;;;27.32;60.24
35989;BME280;22064;42.672;23.282;2022-08-06T08:13:21;94497.22;;;27.58;56.46
35989;BME280;22064;42.672;23.282;2022-08-06T08:15:48;94501.97;;;27.88;54.75
35989;BME280;22064;42.672;23.282;2022-08-06T08:18:14;94497.13;;;28.16;52.88
35989;BME280;22064;42.672;23.282;2022-08-06T08:20:42;94491.56;;;28.48;50.74
35989;BME280;22064;42.672;23.282;2022-08-06T08:23:11;94492.72;;;28.50;49.10
35989;BME280;22064;42.672;23.282;2022-08-06T08:25:38;94500.31;;;28.71;49.34
35989;BME280;22064;42.672;23.282;2022-08-06T08:28:07;94473.66;;;28.78;47.24
35989;BME280;22064;42.672;23.282;2022-08-06T08:30:37;94500.44;;;29.05;46.16
35989;BME280;22064;42.672;23.282;2022-08-06T08:33:03;94496.72;;;29.13;45.77
35989;BME280;22064;42.672;23.282;2022-08-06T08:35:29;94500.00;;;29.03;46.17
35989;BME280;22064;42.672;23.282;2022-08-06T08:37:54;94499.84;;;29.19;45.81
35989;BME280;22064;42.672;23.282;2022-08-06T08:40:21;94482.31;;;28.98;45.29
35989;BME280;22064;42.672;23.282;2022-08-06T08:42:49;94490.75;;;28.24;46.91
35989;BME280;22064;42.672;23.282;2022-08-06T08:45:20;94492.31;;;28.25;48.70
35989;BME280;22064;42.672;23.282;2022-08-06T08:47:50;94494.91;;;28.68;47.61
35989;BME280;22064;42.672;23.282;2022-08-06T08:50:19;94485.63;;;28.88;46.22
35989;BME280;22064;42.672;23.282;2022-08-06T08:52:46;94490.53;;;29.09;46.56
35989;BME280;22064;42.672;23.282;2022-08-06T08:55:15;94483.31;;;29.47;45.01
35989;BME280;22064;42.672;23.282;2022-08-06T08:57:42;94483.25;;;29.74;44.59
35989;BME280;22064;42.672;23.282;2022-08-06T09:00:08;94494.50;;;29.86;43.71
35989;BME280;22064;42.672;23.282;2022-08-06T09:02:36;94480.31;;;29.86;43.35
35989;BME280;22064;42.672;23.282;2022-08-06T09:05:02;94467.84;;;30.04;42.37
35989;BME280;22064;42.672;23.282;2022-08-06T09:07:30;94485.69;;;30.27;42.29
35989;BME280;22064;42.672;23.282;2022-08-06T09:09:58;94483.72;;;30.20;41.26
35989;BME280;22064;42.672;23.282;2022-08-06T09:12:24;94478.44;;;30.31;41.07
35989;BME280;22064;42.672;23.282;2022-08-06T09:14:49;94478.22;;;30.50;40.87
35989;BME280;22064;42.672;23.282;2022-08-06T09:17:15;94478.66;;;29.74;41.72
35989;BME280;22064;42.672;23.282;2022-08-06T09:19:42;94471.94;;;29.91;43.00
35989;BME280;22064;42.672;23.282;2022-08-06T09:22:09;94465.09;;;30.42;42.02
35989;BME280;22064;42.672;23.282;2022-08-06T09:24:35;94469.22;;;30.80;40.44
35989;BME280;22064;42.672;23.282;2022-08-06T09:27:05;94475.47;;;31.02;38.98
35989;BME280;22064;42.672;23.282;2022-08-06T09:29:32;94477.16;;;31.28;39.40
35989;BME280;22064;42.672;23.282;2022-08-06T09:31:58;94452.53;;;31.19;39.03
35989;BME280;22064;42.672;23.282;2022-08-06T09:36:59;94462.66;;;31.50;38.23
35989;BME280;22064;42.672;23.282;2022-08-06T09:39:38;94470.59;;;31.22;37.39
35989;BME280;22064;42.672;23.282;2022-08-06T09:42:10;94464.53;;;31.39;37.28
35989;BME280;22064;42.672;23.282;2022-08-06T09:44:35;94469.22;;;31.64;37.46
35989;BME280;22064;42.672;23.282;2022-08-06T09:47:01;94464.69;;;32.07;36.09
35989;BME280;22064;42.672;23.282;2022-08-06T09:49:28;94463.94;;;32.14;36.07
35989;BME280;22064;42.672;23.282;2022-08-06T09:54:37;94463.19;;;32.03;35.79
35989;BME280;22064;42.672;23.282;2022-08-06T09:57:03;94459.72;;;32.34;35.39
35989;BME280;22064;42.672;23.282;2022-08-06T09:59:44;94451.56;;;32.95;34.17
35989;BME280;22064;42.672;23.282;2022-08-06T10:02:15;94459.81;;;33.58;33.47
35989;BME280;22064;42.672;23.282;2022-08-06T10:04:41;94458.34;;;34.16;32.08
35989;BME280;22064;42.672;23.282;2022-08-06T10:07:06;94457.56;;;33.53;32.55
35989;BME280;22064;42.672;23.282;2022-08-06T10:09:33;94445.31;;;33.23;33.14
35989;BME280;22064;42.672;23.282;2022-08-06T10:11:59;94459.22;;;33.18;33.67
35989;BME280;22064;42.672;23.282;2022-08-06T10:14:27;94463.13;;;33.03;33.55
35989;BME280;22064;42.672;23.282;2022-08-06T10:17:07;94453.47;;;33.05;33.02
35989;BME280;22064;42.672;23.282;2022-08-06T10:19:33;94451.50;;;33.17;33.57
35989;BME280;22064;42.672;23.282;2022-08-06T10:22:09;94445.41;;;32.98;33.74
35989;BME280;22064;42.672;23.282;2022-08-06T10:24:39;94442.38;;;32.64;33.39
35989;BME280;22064;42.672;23.282;2022-08-06T10:27:07;94424.31;;;32.47;33.18
35989;BME280;22064;42.672;23.282;2022-08-06T10:29:35;94438.13;;;32.81;33.27
35989;BME280;22064;42.672;23.282;2022-08-06T10:32:04;94438.16;;;32.31;34.28
35989;BME280;22064;42.672;23.282;2022-08-06T10:34:33;94442.03;;;32.15;35.16
35989;BME280;22064;42.672;23.282;2022-08-06T10:37:06;94446.25;;;32.34;33.75
35989;BME280;22064;42.672;23.282;2022-08-06T10:39:35;94436.16;;;31.74;34.88
35989;BME280;22064;42.672;23.282;2022-08-06T10:42:03;94439.31;;;32.40;35.09
35989;BME280;22064;42.672;23.282;2022-08-06T10:44:31;94436.19;;;32.99;33.88
35989;BME280;22064;42.672;23.282;2022-08-06T10:46:58;94439.72;;;32.00;34.81
35989;BME280;22064;42.672;23.282;2022-08-06T10:49:24;94431.22;;;32.62;33.67
35989;BME280;22064;42.672;23.282;2022-08-06T10:51:51;94436.56;;;32.80;33.50
35989;BME280;22064;42.672;23.282;2022-08-06T10:54:18;94438.84;;;33.06;33.36
35989;BME280;22064;42.672;23.282;2022-08-06T10:56:45;94439.69;;;32.14;33.73
35989;BME280;22064;42.672;23.282;2022-08-06T10:59:13;94441.84;;;30.64;36.04
35989;BME280;22064;42.672;23.282;2022-08-06T11:02:11;94429.94;;;30.68;35.47
35989;BME280;22064;42.672;23.282;2022-08-06T11:04:49;94433.69;;;31.19;35.22
35989;BME280;22064;42.672;23.282;2022-08-06T11:10:02;94429.00;;;31.05;35.96
35989;BME280;22064;42.672;23.282;2022-08-06T11:15:36;94416.09;;;31.46;35.10
35989;BME280;22064;42.672;23.282;2022-08-06T11:18:06;94422.00;;;31.98;34.39
35989;BME280;22064;42.672;23.282;2022-08-06T11:23:01;94417.00;;;32.29;33.48
35989;BME280;22064;42.672;23.282;2022-08-06T11:25:47;94408.50;;;32.27;32.44
35989;BME280;22064;42.672;23.282;2022-08-06T11:28:16;94421.53;;;32.86;32.51
35989;BME280;22064;42.672;23.282;2022-08-06T11:30:44;94417.66;;;33.01;31.67
35989;BME280;22064;42.672;23.282;2022-08-06T11:33:11;94409.38;;;33.44;31.01
35989;BME280;22064;42.672;23.282;2022-08-06T11:35:39;94411.25;;;33.58;30.73
35989;BME280;22064;42.672;23.282;2022-08-06T11:38:07;94414.50;;;33.17;31.68
35989;BME280;22064;42.672;23.282;2022-08-06T11:43:46;94418.63;;;33.47;30.15
35989;BME280;22064;42.672;23.282;2022-08-06T12:02:12;94400.84;;;32.47;31.70
35989;BME280;22064;42.672;23.282;2022-08-06T12:07:27;94404.59;;;31.49;33.95
35989;BME280;22064;42.672;23.282;2022-08-06T12:12:46;94408.53;;;32.02;32.77
35989;BME280;22064;42.672;23.282;2022-08-06T12:17:38;94393.50;;;32.51;31.21
35989;BME280;22064;42.672;23.282;2022-08-06T12:20:05;94391.50;;;32.87;31.06
35989;BME280;22064;42.672;23.282;2022-08-06T12:22:33;94391.28;;;33.38;30.40
35989;BME280;22064;42.672;23.282;2022-08-06T12:25:01;94381.50;;;32.81;30.23
35989;BME280;22064;42.672;23.282;2022-08-06T12:27:32;94392.72;;;32.36;30.99
35989;BME280;22064;42.672;23.282;2022-08-06T12:29:59;94381.16;;;32.68;30.69
35989;BME280;22064;42.672;23.282;2022-08-06T12:32:29;94383.75;;;32.97;30.93
35989;BME280;22064;42.672;23.282;2022-08-06T12:35:00;94394.47;;;33.18;30.29
35989;BME280;22064;42.672;23.282;2022-08-06T12:37:34;94377.28;;;33.61;30.26
35989;BME280;22064;42.672;23.282;2022-08-06T12:40:01;94380.81;;;34.10;29.04
35989;BME280;22064;42.672;23.282;2022-08-06T12:42:46;94369.47;;;33.80;28.65
35989;BME280;22064;42.672;23.282;2022-08-06T12:45:11;94381.25;;;34.01;28.65
35989;BME280;22064;42.672;23.282;2022-08-06T12:47:37;94376.16;;;33.58;28.74
35989;BME280;22064;42.672;23.282;2022-08-06T12:50:19;94368.84;;;33.55;28.87
35989;BME280;22064;42.672;23.282;2022-08-06T12:53:10;94385.94;;;33.30;28.96
35989;BME280;22064;42.672;23.282;2022-08-06T12:55:48;94381.13;;;32.75;30.42
35989;BME280;22064;42.672;23.282;2022-08-06T12:58:26;94377.94;;;33.09;30.21
35989;BME280;22064;42.672;23.282;2022-08-06T13:00:56;94372.41;;;33.38;29.08
35989;BME280;22064;42.672;23.282;2022-08-06T13:03:23;94368.69;;;33.10;28.97
35989;BME280;22064;42.672;23.282;2022-08-06T13:05:52;94356.59;;;33.36;28.75
35989;BME280;22064;42.672;23.282;2022-08-06T13:08:20;94358.34;;;34.20;27.44
35989;BME280;22064;42.672;23.282;2022-08-06T13:10:50;94358.06;;;34.07;27.59
35989;BME280;22064;42.672;23.282;2022-08-06T13:13:17;94363.47;;;34.86;26.59
35989;BME280;22064;42.672;23.282;2022-08-06T13:15:43;94356.38;;;33.75;27.12
35989;BME280;22064;42.672;23.282;2022-08-06T13:18:23;94367.53;;;33.07;27.75
35989;BME280;22064;42.672;23.282;2022-08-06T13:20:50;94335.94;;;33.74;27.13
35989;BME280;22064;42.672;23.282;2022-08-06T13:25:53;94350.47;;;35.66;25.23
35989;BME280;22064;42.672;23.282;2022-08-06T13:28:21;94342.06;;;36.55;24.86
35989;BME280;22064;42.672;23.282;2022-08-06T13:30:47;94345.31;;;36.66;25.45
35989;BME280;22064;42.672;23.282;2022-08-06T13:33:16;94350.13;;;36.35;25.65
35989;BME280;22064;42.672;23.282;2022-08-06T13:35:44;94360.78;;;35.75;26.14
35989;BME280;22064;42.672;23.282;2022-08-06T13:38:10;94366.28;;;35.40;26.47
35989;BME280;22064;42.672;23.282;2022-08-06T13:40:47;94353.31;;;34.94;26.72
35989;BME280;22064;42.672;23.282;2022-08-06T13:43:13;94349.69;;;34.36;27.94
35989;BME280;22064;42.672;23.282;2022-08-06T13:45:39;94353.41;;;34.53;27.75
35989;BME280;22064;42.672;23.282;2022-08-06T13:48:07;94357.13;;;35.00;27.47
35989;BME280;22064;42.672;23.282;2022-08-06T13:50:35;94344.13;;;36.00;26.55
35989;BME280;22064;42.672;23.282;2022-08-06T13:53:02;94330.75;;;37.16;24.76
35989;BME280;22064;42.672;23.282;2022-08-06T13:55:28;94340.88;;;36.95;25.55
35989;BME280;22064;42.672;23.282;2022-08-06T13:57:57;94339.66;;;37.36;24.91
35989;BME280;22064;42.672;23.282;2022-08-06T14:00:24;94338.28;;;37.44;24.29
35989;BME280;22064;42.672;23.282;2022-08-06T14:02:51;94335.97;;;37.79;24.07
35989;BME280;22064;42.672;23.282;2022-08-06T14:05:16;94330.09;;;37.81;23.76
35989;BME280;22064;42.672;23.282;2022-08-06T14:07:42;94343.69;;;37.64;23.68